الصفحة الرئيسية
METAR-TAF:

METAR-TAF

مطار :

مطار سياتل تاكوما الدولي

سياتيل / تاكوما, واشنطن, الولايات المتحدة

دائرة عرض: 47-26-41N, خط طول: 122-18-49W, ارتفاع: 130 متر

مراقبة الطقس الحالي

تاريخ ووقت الإصدار 1ساعة و 3 دقيقة قبل الساعة 21:53UTC
ريح 7 عقدة من الشمال
درجة الحرارة 26°درجة مئوية
الرطوبة 45%
ضغط 1018 hPa
الرؤية: 16.1 كم
غيوم قليلة على ارتفاع 20000 قدم

METAR: KSEA 292153Z 01007KT 10SM FEW200 26/13 A3005 RMK AO2 SLP179 T02560133

زمن: 15:56 (22:56 UTC)

توقعات

تاريخ ووقت الإصدار 1ساعة و 52 دقيقة قبل الساعة 21:04UTC
التوقعات صالحة من29 الساعة 21 UTC إلى 30 الساعة 24 UTC
ريح 8 عقدة من الشمال/الشمال الشرقي
الرؤية: 10 كم
سماء صافية
من 29 الساعة 2200 UTC
ريح 8 عقدة من الشمال
الرؤية: 10 كم
سماء صافية
من 30 الساعة 0400 UTC
ريح 3 عقدةمن اتجاهات متغيرة
الرؤية: 10 كم
غيوم مفككة على ارتفاع 7000 قدم
من 30 الساعة 1500 UTC
ريح 6 عقدة من الجنوب
الرؤية: 10 كم
غيوم متفرقة على ارتفاع 7000 قدم

TAF: KSEA 292104Z 2921/3024 02008KT P6SM SKC FM292200 35008KT P6SM SKC FM300400 VRB03KT P6SM BKN070 FM301500 17006KT P6SM SCT070

أرصاد الطقس والتوقعات من أكثر من 4000 مطار (تقارير الطقس للمطار METAR والتنبؤ بالطقس بالمطارTAF).

المحطات المتاحة هي النقط الصفراء والحمراء على الخريطة.

حرك المؤشر فوق النقطة لمعرفة اسم المحطة.

ثم انقر لمعرفة أرصاد وتوقعات الطقس.

لتغيير الخارطة: اضغط على الأزرار الخضراء مع رمز الصليب الأسود للتكبير. على الزر الأخضر مع شرطة للتصغير، أو على الأسهم الخضراء للخرائط المجاورة.


METAR-TAF: